Pacific Echo — CFN6252 — position and weather

sailwx.info

Track history (hours):
 
Tides and Currents Weather Stations Pressure Air Temp Water Temp Dewpoint Dewpoint Depression Visibility Wind Speed Wind Dir Waves Ship Positions

Pacific Echo

Last reported at 2017-Dec-07 22:39 UTC. Time now 2017-Dec-14 17:16 UTC.
Position N 49°17' W 122°51'.

Type: Other ship. MMSI: 316023437.

Date/timePositionNaut miles runAvg speedWind from/ knotsBaromVisibWave heightAir tempDewpointWater temp
2017-Dec-07 22:39N 49°17' W 122°51'0 0.4
2017-Dec-07 22:30N 49°17' W 122°51'4 8.0
2017-Dec-07 22:01N 49°18' W 122°57'1 2.9
2017-Dec-07 21:30N 49°18' W 122°59'0 0.2
2017-Dec-07 21:00N 49°18' W 122°59'0 0.2
2017-Dec-07 20:30N 49°18' W 122°59'3 5.7
2017-Dec-07 20:01N 49°18' W 123°03'0 0.1
2017-Dec-07 19:30N 49°18' W 123°03'2 4.9
2017-Dec-07 19:01N 49°18' W 123°07'0 0.7
2017-Dec-07 18:30N 49°18' W 123°07'0 0.5
2017-Dec-07 18:00N 49°17' W 123°07'0 0.0
2017-Dec-07 17:31N 49°17' W 123°07'0 0.8
2017-Dec-07 17:00N 49°17' W 123°06'0 0.0
2017-Dec-06 23:15N 49°17' W 123°06'1 3.4
2017-Dec-06 23:00N 49°18' W 123°07'2 4.0
2017-Dec-06 22:30N 49°17' W 123°04'1 1.8
2017-Dec-06 22:01N 49°18' W 123°05'0 0.4
2017-Dec-06 21:30N 49°18' W 123°04'0 0.9
2017-Dec-06 21:01N 49°18' W 123°04'  
2017-Nov-30 15:08N 49°12' W 122°55'0 0.0
2017-Nov-30 14:59N 49°12' W 122°55'0 0.0
2017-Nov-30 14:28N 49°12' W 122°55'0 0.0
2017-Nov-30 14:00N 49°12' W 122°55'0 0.0
2017-Nov-30 13:29N 49°12' W 122°55'0 0.0
2017-Nov-30 10:56N 49°12' W 122°55'0 0.0
2017-Nov-30 10:30N 49°12' W 122°55'0 0.0
2017-Nov-30 10:00N 49°12' W 122°55'0 0.0
2017-Nov-30 09:29N 49°12' W 122°55'0 0.0
2017-Nov-30 09:00N 49°12' W 122°55'0 0.0
2017-Nov-30 08:30N 49°12' W 122°55'0 0.0
2017-Nov-30 08:00N 49°12' W 122°55'0 0.0
2017-Nov-30 06:53N 49°12' W 122°55'0 0.0
2017-Nov-30 06:29N 49°12' W 122°55'0 0.0
2017-Nov-30 04:56N 49°12' W 122°55'0 0.0
2017-Nov-30 04:24N 49°12' W 122°55'0 0.0
2017-Nov-30 03:53N 49°12' W 122°55'0 0.0
2017-Nov-30 03:29N 49°12' W 122°55'0 0.0
2017-Nov-30 02:57N 49°12' W 122°55'0 0.0
2017-Nov-30 02:27N 49°12' W 122°55'0 0.0
2017-Nov-30 01:59N 49°12' W 122°55'0 0.0
2017-Nov-30 01:30N 49°12' W 122°55'0 0.0
2017-Nov-30 00:56N 49°12' W 122°55'0 0.0
2017-Nov-30 00:29N 49°12' W 122°55'0 0.0
2017-Nov-30 00:00N 49°12' W 122°55'0 0.0
2017-Nov-29 23:27N 49°12' W 122°55'0 0.0
2017-Nov-29 21:18N 49°12' W 122°55'0 0.0
2017-Nov-29 20:58N 49°12' W 122°55'0 0.0
2017-Nov-29 20:29N 49°12' W 122°55'0 0.0
2017-Nov-29 19:47N 49°12' W 122°55'0 0.0
2017-Nov-29 19:27N 49°12' W 122°55'0 0.0
2017-Nov-29 19:00N 49°12' W 122°55'0 0.0
2017-Nov-29 18:30N 49°12' W 122°55'0 0.0
2017-Nov-29 18:00N 49°12' W 122°55'0 0.0
2017-Nov-29 17:29N 49°12' W 122°55'0 0.0
2017-Nov-29 16:58N 49°12' W 122°55'0 0.0
2017-Nov-29 16:30N 49°12' W 122°55'0 0.0
2017-Nov-29 15:43N 49°12' W 122°55'0 0.0
2017-Nov-29 15:28N 49°12' W 122°55'0 0.0
2017-Nov-29 14:56N 49°12' W 122°55'0 0.0
2017-Nov-29 14:29N 49°12' W 122°55'0 0.0
2017-Nov-29 13:59N 49°12' W 122°55'0 0.0
2017-Nov-29 13:29N 49°12' W 122°55'0 0.0
2017-Nov-29 12:59N 49°12' W 122°55'0 0.0
2017-Nov-29 12:30N 49°12' W 122°55'0 0.0
2017-Nov-29 12:00N 49°12' W 122°55'0 0.0
2017-Nov-29 11:30N 49°12' W 122°55'0 0.0
2017-Nov-29 10:57N 49°12' W 122°55'0 0.0
2017-Nov-29 10:30N 49°12' W 122°55'0 0.0
2017-Nov-29 09:59N 49°12' W 122°55'0 0.0
2017-Nov-29 09:27N 49°12' W 122°55'0 0.0
2017-Nov-29 08:59N 49°12' W 122°55'0 0.0
2017-Nov-29 08:30N 49°12' W 122°55'0 0.0
2017-Nov-29 07:56N 49°12' W 122°55'0 0.0
2017-Nov-29 07:30N 49°12' W 122°55'0 0.0
2017-Nov-29 06:57N 49°12' W 122°55'0 0.0
2017-Nov-29 06:27N 49°12' W 122°55'0 0.0
2017-Nov-29 06:00N 49°12' W 122°55'0 0.0
2017-Nov-29 05:00N 49°12' W 122°55'0 0.0
2017-Nov-29 04:16N 49°12' W 122°55'0 0.0
2017-Nov-29 03:49N 49°12' W 122°55'0 0.0
2017-Nov-29 03:23N 49°12' W 122°55'0 0.0
2017-Nov-29 02:57N 49°12' W 122°55'0 0.0
2017-Nov-29 02:28N 49°12' W 122°55'0 0.0
2017-Nov-29 01:58N 49°12' W 122°55'0 0.0
2017-Nov-29 01:22N 49°12' W 122°55'0 0.0
2017-Nov-29 00:57N 49°12' W 122°55'0 0.0
2017-Nov-29 00:28N 49°12' W 122°55'0 0.0
2017-Nov-28 23:57N 49°12' W 122°55'0 0.0
2017-Nov-28 23:29N 49°12' W 122°55'0 0.0
2017-Nov-28 22:57N 49°12' W 122°55'0 0.0
2017-Nov-28 22:30N 49°12' W 122°55'0 0.0
2017-Nov-28 22:00N 49°12' W 122°55'0 0.0
2017-Nov-28 16:55N 49°12' W 122°55'0 0.0
2017-Nov-28 16:24N 49°12' W 122°55'0 0.0
2017-Nov-27 23:18N 49°12' W 122°55'0 0.0
2017-Nov-27 22:51N 49°12' W 122°55'  
Track history (hours):
 
Tides and Currents Weather Stations Pressure Air Temp Water Temp Dewpoint Dewpoint Depression Visibility Wind Speed Wind Dir Waves Ship Positions

Pacific Echo

Last reported at 2017-Dec-07 22:39 UTC. Time now 2017-Dec-14 17:16 UTC.
Position N 49°17' W 122°51'.

Type: Other ship. MMSI: 316023437.

Date/timePositionNaut miles runAvg speedWind from/ knotsBaromVisibWave heightAir tempDewpointWater temp
2017-Dec-07 22:39N 49°17' W 122°51'0 0.4
2017-Dec-07 22:30N 49°17' W 122°51'4 8.0
2017-Dec-07 22:01N 49°18' W 122°57'1 2.9
2017-Dec-07 21:30N 49°18' W 122°59'0 0.2
2017-Dec-07 21:00N 49°18' W 122°59'0 0.2
2017-Dec-07 20:30N 49°18' W 122°59'3 5.7
2017-Dec-07 20:01N 49°18' W 123°03'0 0.1
2017-Dec-07 19:30N 49°18' W 123°03'2 4.9
2017-Dec-07 19:01N 49°18' W 123°07'0 0.7
2017-Dec-07 18:30N 49°18' W 123°07'0 0.5
2017-Dec-07 18:00N 49°17' W 123°07'0 0.0
2017-Dec-07 17:31N 49°17' W 123°07'0 0.8
2017-Dec-07 17:00N 49°17' W 123°06'0 0.0
2017-Dec-06 23:15N 49°17' W 123°06'1 3.4
2017-Dec-06 23:00N 49°18' W 123°07'2 4.0
2017-Dec-06 22:30N 49°17' W 123°04'1 1.8
2017-Dec-06 22:01N 49°18' W 123°05'0 0.4
2017-Dec-06 21:30N 49°18' W 123°04'0 0.9
2017-Dec-06 21:01N 49°18' W 123°04'  
2017-Nov-30 15:08N 49°12' W 122°55'0 0.0
2017-Nov-30 14:59N 49°12' W 122°55'0 0.0
2017-Nov-30 14:28N 49°12' W 122°55'0 0.0
2017-Nov-30 14:00N 49°12' W 122°55'0 0.0
2017-Nov-30 13:29N 49°12' W 122°55'0 0.0
2017-Nov-30 10:56N 49°12' W 122°55'0 0.0
2017-Nov-30 10:30N 49°12' W 122°55'0 0.0
2017-Nov-30 10:00N 49°12' W 122°55'0 0.0
2017-Nov-30 09:29N 49°12' W 122°55'0 0.0
2017-Nov-30 09:00N 49°12' W 122°55'0 0.0
2017-Nov-30 08:30N 49°12' W 122°55'0 0.0
2017-Nov-30 08:00N 49°12' W 122°55'0 0.0
2017-Nov-30 06:53N 49°12' W 122°55'0 0.0
2017-Nov-30 06:29N 49°12' W 122°55'0 0.0
2017-Nov-30 04:56N 49°12' W 122°55'0 0.0
2017-Nov-30 04:24N 49°12' W 122°55'0 0.0
2017-Nov-30 03:53N 49°12' W 122°55'0 0.0
2017-Nov-30 03:29N 49°12' W 122°55'0 0.0
2017-Nov-30 02:57N 49°12' W 122°55'0 0.0
2017-Nov-30 02:27N 49°12' W 122°55'0 0.0
2017-Nov-30 01:59N 49°12' W 122°55'0 0.0
2017-Nov-30 01:30N 49°12' W 122°55'0 0.0
2017-Nov-30 00:56N 49°12' W 122°55'0 0.0
2017-Nov-30 00:29N 49°12' W 122°55'0 0.0
2017-Nov-30 00:00N 49°12' W 122°55'0 0.0
2017-Nov-29 23:27N 49°12' W 122°55'0 0.0
2017-Nov-29 21:18N 49°12' W 122°55'0 0.0
2017-Nov-29 20:58N 49°12' W 122°55'0 0.0
2017-Nov-29 20:29N 49°12' W 122°55'0 0.0
2017-Nov-29 19:47N 49°12' W 122°55'0 0.0
2017-Nov-29 19:27N 49°12' W 122°55'0 0.0
2017-Nov-29 19:00N 49°12' W 122°55'0 0.0
2017-Nov-29 18:30N 49°12' W 122°55'0 0.0
2017-Nov-29 18:00N 49°12' W 122°55'0 0.0
2017-Nov-29 17:29N 49°12' W 122°55'0 0.0
2017-Nov-29 16:58N 49°12' W 122°55'0 0.0
2017-Nov-29 16:30N 49°12' W 122°55'0 0.0
2017-Nov-29 15:43N 49°12' W 122°55'0 0.0
2017-Nov-29 15:28N 49°12' W 122°55'0 0.0
2017-Nov-29 14:56N 49°12' W 122°55'0 0.0
2017-Nov-29 14:29N 49°12' W 122°55'0 0.0
2017-Nov-29 13:59N 49°12' W 122°55'0 0.0
2017-Nov-29 13:29N 49°12' W 122°55'0 0.0
2017-Nov-29 12:59N 49°12' W 122°55'0 0.0
2017-Nov-29 12:30N 49°12' W 122°55'0 0.0
2017-Nov-29 12:00N 49°12' W 122°55'0 0.0
2017-Nov-29 11:30N 49°12' W 122°55'0 0.0
2017-Nov-29 10:57N 49°12' W 122°55'0 0.0
2017-Nov-29 10:30N 49°12' W 122°55'0 0.0
2017-Nov-29 09:59N 49°12' W 122°55'0 0.0
2017-Nov-29 09:27N 49°12' W 122°55'0 0.0
2017-Nov-29 08:59N 49°12' W 122°55'0 0.0
2017-Nov-29 08:30N 49°12' W 122°55'0 0.0
2017-Nov-29 07:56N 49°12' W 122°55'0 0.0
2017-Nov-29 07:30N 49°12' W 122°55'0 0.0
2017-Nov-29 06:57N 49°12' W 122°55'0 0.0
2017-Nov-29 06:27N 49°12' W 122°55'0 0.0
2017-Nov-29 06:00N 49°12' W 122°55'0 0.0
2017-Nov-29 05:00N 49°12' W 122°55'0 0.0
2017-Nov-29 04:16N 49°12' W 122°55'0 0.0
2017-Nov-29 03:49N 49°12' W 122°55'0 0.0
2017-Nov-29 03:23N 49°12' W 122°55'0 0.0
2017-Nov-29 02:57N 49°12' W 122°55'0 0.0
2017-Nov-29 02:28N 49°12' W 122°55'0 0.0
2017-Nov-29 01:58N 49°12' W 122°55'0 0.0
2017-Nov-29 01:22N 49°12' W 122°55'0 0.0
2017-Nov-29 00:57N 49°12' W 122°55'0 0.0
2017-Nov-29 00:28N 49°12' W 122°55'0 0.0
2017-Nov-28 23:57N 49°12' W 122°55'0 0.0
2017-Nov-28 23:29N 49°12' W 122°55'0 0.0
2017-Nov-28 22:57N 49°12' W 122°55'0 0.0
2017-Nov-28 22:30N 49°12' W 122°55'0 0.0
2017-Nov-28 22:00N 49°12' W 122°55'0 0.0
2017-Nov-28 16:55N 49°12' W 122°55'0 0.0
2017-Nov-28 16:24N 49°12' W 122°55'0 0.0
2017-Nov-27 23:18N 49°12' W 122°55'0 0.0
2017-Nov-27 22:51N 49°12' W 122°55'  

Dump ship's entire track history